createdAt,value
2018-12-16T00:00:47.047Z,98.40
2018-12-16T00:01:48.565Z,98.70
2018-12-16T00:02:49.939Z,98.90
2018-12-16T00:03:51.316Z,99.00
2018-12-16T00:04:52.709Z,98.50
2018-12-16T00:05:54.165Z,98.30
2018-12-16T00:06:55.616Z,98.50
2018-12-16T00:07:57.000Z,98.60
2018-12-16T00:08:58.377Z,98.90
2018-12-16T00:09:59.858Z,99.00
2018-12-16T00:11:01.501Z,99.30
2018-12-16T00:12:03.932Z,98.80
2018-12-16T00:13:05.484Z,98.60
2018-12-16T00:14:06.861Z,98.30
2018-12-16T00:15:08.322Z,98.10
2018-12-16T00:16:09.772Z,98.20
2018-12-16T00:17:11.163Z,98.30
2018-12-16T00:18:12.558Z,98.40
2018-12-16T00:19:14.035Z,98.40
2018-12-16T00:20:15.650Z,98.10
2018-12-16T00:21:18.472Z,98.10
2018-12-16T00:22:20.139Z,98.30
2018-12-16T00:23:21.840Z,98.40
2018-12-16T00:24:23.337Z,98.60
2018-12-16T00:25:24.836Z,98.60
2018-12-16T00:26:26.466Z,98.60
2018-12-16T00:27:28.097Z,98.70
2018-12-16T00:28:29.755Z,98.80
2018-12-16T00:29:31.296Z,98.90
2018-12-16T00:30:32.843Z,98.90
2018-12-16T00:31:34.277Z,98.90
2018-12-16T00:32:35.663Z,98.90
2018-12-16T00:33:37.029Z,98.70
2018-12-16T00:34:38.457Z,98.80
2018-12-16T00:35:39.831Z,98.70
2018-12-16T00:36:41.253Z,98.80
2018-12-16T00:37:42.661Z,98.80
2018-12-16T00:38:44.162Z,99.00
2018-12-16T00:39:45.539Z,99.30
2018-12-16T00:40:46.900Z,98.90
2018-12-16T00:41:48.309Z,98.90
2018-12-16T00:42:49.696Z,98.80
2018-12-16T00:43:51.083Z,98.80
2018-12-16T00:44:52.588Z,98.80
2018-12-16T00:45:54.183Z,98.90
2018-12-16T00:46:55.724Z,99.10
2018-12-16T00:47:57.251Z,99.20
2018-12-16T00:48:58.646Z,99.00
2018-12-16T00:50:00.013Z,98.70
2018-12-16T00:51:01.375Z,98.60
2018-12-16T00:52:02.994Z,98.20
2018-12-16T00:53:04.524Z,97.70
2018-12-16T00:54:05.965Z,97.30
2018-12-16T00:55:07.512Z,97.00
2018-12-16T00:56:09.051Z,96.90
2018-12-16T00:57:10.589Z,97.10
2018-12-16T00:58:13.156Z,97.40
2018-12-16T00:59:14.700Z,97.80
2018-12-16T01:00:16.352Z,97.80
2018-12-16T01:01:17.893Z,97.90
2018-12-16T01:02:19.314Z,97.90
2018-12-16T01:03:20.741Z,97.90
2018-12-16T01:04:22.110Z,97.90
2018-12-16T01:05:23.654Z,98.10
2018-12-16T01:06:25.015Z,97.90
2018-12-16T01:07:26.623Z,97.70
2018-12-16T01:08:28.177Z,97.70
2018-12-16T01:09:29.717Z,97.70
2018-12-16T01:10:31.266Z,97.50
2018-12-16T01:11:32.730Z,97.50
2018-12-16T01:12:34.246Z,97.40
2018-12-16T01:13:35.881Z,97.30
2018-12-16T01:14:37.535Z,97.50
2018-12-16T01:15:39.186Z,97.60
2018-12-16T01:16:40.656Z,97.50
2018-12-16T01:17:42.367Z,97.50
2018-12-16T01:18:43.898Z,97.50
2018-12-16T01:19:45.555Z,97.60
2018-12-16T01:20:47.087Z,97.70
2018-12-16T01:21:48.611Z,97.60
2018-12-16T01:22:50.392Z,97.70
2018-12-16T01:23:51.920Z,97.70
2018-12-16T01:24:53.578Z,97.50
2018-12-16T01:25:55.315Z,97.40
2018-12-16T01:26:56.890Z,97.40
2018-12-16T01:27:58.614Z,97.50
2018-12-16T01:29:00.082Z,97.50
2018-12-16T01:30:01.600Z,97.70
2018-12-16T01:31:03.136Z,97.80
2018-12-16T01:32:04.790Z,98.00
2018-12-16T01:33:06.531Z,98.10
2018-12-16T01:34:08.120Z,98.20
2018-12-16T01:35:09.614Z,98.00
2018-12-16T01:36:11.150Z,98.10
2018-12-16T01:37:12.802Z,97.90
2018-12-16T01:38:14.550Z,97.90
2018-12-16T01:39:16.203Z,98.00
2018-12-16T01:40:17.776Z,98.10
2018-12-16T01:41:19.416Z,98.10
2018-12-16T01:42:21.037Z,98.10
2018-12-16T01:43:22.579Z,98.20
2018-12-16T01:44:24.217Z,98.30
2018-12-16T01:45:25.862Z,98.30
2018-12-16T01:46:27.439Z,98.30
2018-12-16T01:47:29.049Z,98.50
2018-12-16T01:48:30.595Z,98.50
2018-12-16T01:49:32.035Z,98.50
2018-12-16T01:50:33.582Z,98.20
2018-12-16T01:51:35.118Z,98.00
2018-12-16T01:52:36.712Z,97.70
2018-12-16T01:53:38.313Z,97.60
2018-12-16T01:54:39.854Z,97.60
2018-12-16T01:55:41.493Z,97.50
2018-12-16T01:56:43.139Z,97.40
2018-12-16T01:57:44.790Z,97.00
2018-12-16T01:58:46.533Z,96.90
2018-12-16T01:59:48.031Z,97.20
2018-12-16T02:00:49.727Z,97.20
2018-12-16T02:01:51.363Z,97.00
2018-12-16T02:02:53.019Z,96.70
2018-12-16T02:03:54.654Z,96.80
2018-12-16T02:04:56.196Z,96.80
2018-12-16T02:05:57.742Z,96.70
2018-12-16T02:06:59.388Z,96.40
2018-12-16T02:08:00.931Z,95.90
2018-12-16T02:09:02.471Z,96.00
2018-12-16T02:10:04.021Z,96.30
2018-12-16T02:11:05.553Z,96.20
2018-12-16T02:12:07.102Z,96.50
2018-12-16T02:13:08.647Z,96.40
2018-12-16T02:14:10.297Z,96.20
2018-12-16T02:15:11.831Z,96.20
2018-12-16T02:16:13.378Z,96.20
2018-12-16T02:17:14.907Z,96.30
2018-12-16T02:18:16.472Z,96.30
2018-12-16T02:19:18.000Z,96.40
2018-12-16T02:20:19.540Z,96.90
2018-12-16T02:21:21.190Z,96.70
2018-12-16T02:22:22.722Z,96.80
2018-12-16T02:23:24.391Z,96.80
2018-12-16T02:24:26.195Z,96.90
2018-12-16T02:25:27.797Z,97.00
2018-12-16T02:26:29.411Z,96.90
2018-12-16T02:27:30.958Z,96.90
2018-12-16T02:28:32.489Z,97.00
2018-12-16T02:29:34.016Z,96.80
2018-12-16T02:30:35.599Z,97.10
2018-12-16T02:31:37.337Z,96.90
2018-12-16T02:32:38.983Z,96.60
2018-12-16T02:33:40.510Z,96.40
2018-12-16T02:34:42.062Z,96.60
2018-12-16T02:35:43.814Z,96.70
2018-12-16T02:36:45.562Z,96.70
2018-12-16T02:37:47.091Z,96.60
2018-12-16T02:38:48.745Z,96.80
2018-12-16T02:39:50.491Z,96.70
2018-12-16T02:40:52.050Z,96.50
2018-12-16T02:41:53.783Z,96.40
2018-12-16T02:42:55.534Z,96.40
2018-12-16T02:43:57.173Z,96.50
2018-12-16T02:44:58.921Z,96.40
2018-12-16T02:46:00.463Z,96.30
2018-12-16T02:47:02.046Z,96.20
2018-12-16T02:48:03.762Z,96.50
2018-12-16T02:49:05.426Z,96.50
2018-12-16T02:50:07.156Z,96.50
2018-12-16T02:51:08.683Z,96.30
2018-12-16T02:52:10.226Z,95.90
2018-12-16T02:53:11.764Z,95.70
2018-12-16T02:54:13.423Z,95.60
2018-12-16T02:55:15.166Z,95.70
2018-12-16T02:56:16.608Z,95.80
2018-12-16T02:57:18.075Z,95.60
2018-12-16T02:58:19.598Z,95.50
2018-12-16T02:59:21.134Z,95.80
2018-12-16T03:00:22.675Z,96.10
2018-12-16T03:01:24.225Z,96.10
2018-12-16T03:02:25.871Z,96.40
2018-12-16T03:03:27.400Z,96.70
2018-12-16T03:04:28.962Z,96.60
2018-12-16T03:05:30.804Z,96.80
2018-12-16T03:06:32.454Z,96.70
2018-12-16T03:07:33.995Z,96.90
2018-12-16T03:08:35.626Z,96.80
2018-12-16T03:09:37.182Z,96.90
2018-12-16T03:10:38.832Z,96.90
2018-12-16T03:11:40.467Z,96.70
2018-12-16T03:12:42.002Z,96.90
2018-12-16T03:13:43.655Z,97.00
2018-12-16T03:14:45.299Z,96.70
2018-12-16T03:15:46.843Z,96.70
2018-12-16T03:16:48.386Z,96.90
2018-12-16T03:17:50.030Z,97.00
2018-12-16T03:18:51.576Z,97.20
2018-12-16T03:19:53.115Z,97.30
2018-12-16T03:20:54.659Z,97.40
2018-12-16T03:21:56.207Z,97.50
2018-12-16T03:22:57.745Z,97.50
2018-12-16T03:23:59.288Z,97.50
2018-12-16T03:25:00.832Z,97.70
2018-12-16T03:26:04.631Z,97.70
2018-12-16T03:27:06.277Z,97.60
2018-12-16T03:28:07.802Z,97.60
2018-12-16T03:29:09.361Z,97.30
2018-12-16T03:30:10.903Z,97.20
2018-12-16T03:31:12.648Z,97.10
2018-12-16T03:32:14.142Z,97.00
2018-12-16T03:33:15.628Z,97.20
2018-12-16T03:34:17.171Z,97.30
2018-12-16T03:35:18.712Z,97.10
2018-12-16T03:36:20.262Z,96.90
2018-12-16T03:37:21.802Z,96.80
2018-12-16T03:38:24.475Z,97.00
2018-12-16T03:39:26.009Z,97.00
2018-12-16T03:40:27.544Z,96.90
2018-12-16T03:41:29.088Z,97.10
2018-12-16T03:42:30.642Z,97.00
2018-12-16T03:43:32.142Z,96.80
2018-12-16T03:44:33.613Z,96.60
2018-12-16T03:45:35.261Z,96.70
2018-12-16T03:46:36.919Z,96.90
2018-12-16T03:47:38.464Z,97.00
2018-12-16T03:48:40.029Z,96.90
2018-12-16T03:49:41.542Z,96.90
2018-12-16T03:50:43.193Z,96.80
2018-12-16T03:51:44.614Z,96.90
2018-12-16T03:52:46.083Z,97.10
2018-12-16T03:53:47.701Z,97.40
2018-12-16T03:54:49.272Z,97.50
2018-12-16T03:55:50.786Z,97.50
2018-12-16T03:56:52.442Z,97.50
2018-12-16T03:57:53.988Z,97.40
2018-12-16T03:58:55.620Z,97.60
2018-12-16T03:59:57.171Z,97.70
2018-12-16T04:00:58.614Z,97.60
2018-12-16T04:02:00.068Z,97.70
2018-12-16T04:03:01.586Z,97.70
2018-12-16T04:04:03.245Z,97.90
2018-12-16T04:05:04.882Z,97.80
2018-12-16T04:06:06.530Z,97.80
2018-12-16T04:07:08.092Z,97.90
2018-12-16T04:08:09.611Z,98.00
2018-12-16T04:09:11.258Z,98.00
2018-12-16T04:10:12.753Z,97.90
2018-12-16T04:11:14.458Z,98.00
2018-12-16T04:12:16.098Z,98.20
2018-12-16T04:13:17.747Z,98.10
2018-12-16T04:14:19.389Z,98.10
2018-12-16T04:15:21.036Z,97.90
2018-12-16T04:16:22.669Z,98.10
2018-12-16T04:17:24.065Z,97.90
2018-12-16T04:18:25.759Z,98.00
2018-12-16T04:19:27.410Z,98.10
2018-12-16T04:20:28.943Z,98.00
2018-12-16T04:21:30.593Z,97.90
2018-12-16T04:22:32.060Z,97.90
2018-12-16T04:23:33.586Z,97.90
2018-12-16T04:24:35.118Z,97.70
2018-12-16T04:25:36.559Z,97.70
2018-12-16T04:26:38.101Z,97.60
2018-12-16T04:27:39.659Z,97.80
2018-12-16T04:28:41.296Z,97.80
2018-12-16T04:29:42.938Z,97.90
2018-12-16T04:30:45.404Z,97.90
2018-12-16T04:31:46.944Z,98.00
2018-12-16T04:32:48.694Z,98.00
2018-12-16T04:33:50.338Z,97.60
2018-12-16T04:34:51.871Z,97.50
2018-12-16T04:35:53.237Z,97.70
2018-12-16T04:36:54.669Z,97.70
2018-12-16T04:37:56.108Z,97.90
2018-12-16T04:38:57.645Z,98.20
2018-12-16T04:39:59.179Z,98.10
2018-12-16T04:41:00.711Z,97.90
2018-12-16T04:42:02.275Z,97.50
2018-12-16T04:43:03.825Z,97.30
2018-12-16T04:44:07.153Z,97.20
2018-12-16T04:45:08.952Z,97.00
2018-12-16T04:46:10.492Z,97.00
2018-12-16T04:47:12.035Z,97.20
2018-12-16T04:48:13.494Z,97.40
2018-12-16T04:49:15.115Z,97.70
2018-12-16T04:50:16.651Z,97.60
2018-12-16T04:51:18.310Z,97.80
2018-12-16T04:52:19.954Z,97.80
2018-12-16T04:53:21.694Z,97.50
2018-12-16T04:54:23.340Z,97.50
2018-12-16T04:55:24.983Z,97.70
2018-12-16T04:56:26.633Z,97.80
2018-12-16T04:57:28.097Z,97.90
2018-12-16T04:58:29.818Z,98.00
2018-12-16T04:59:31.357Z,97.70
2018-12-16T05:00:33.101Z,97.80
2018-12-16T05:01:34.853Z,97.80
2018-12-16T05:02:36.401Z,97.50
2018-12-16T05:03:38.045Z,97.40
2018-12-16T05:04:39.897Z,97.30
2018-12-16T05:05:41.731Z,97.30
2018-12-16T05:06:43.421Z,97.10
2018-12-16T05:07:45.134Z,97.00
2018-12-16T05:08:46.882Z,97.10
2018-12-16T05:09:48.526Z,97.20
2018-12-16T05:10:50.076Z,96.90
2018-12-16T05:11:51.718Z,97.10
2018-12-16T05:12:53.249Z,97.20
2018-12-16T05:13:54.904Z,97.30
2018-12-16T05:14:56.546Z,97.60
2018-12-16T05:15:58.077Z,97.40
2018-12-16T05:16:59.600Z,97.50
2018-12-16T05:18:01.081Z,97.50
2018-12-16T05:19:02.614Z,97.20
2018-12-16T05:20:04.266Z,97.10
2018-12-16T05:21:05.897Z,97.10
2018-12-16T05:22:07.451Z,97.10
2018-12-16T05:23:08.995Z,97.20
2018-12-16T05:24:10.639Z,97.30
2018-12-16T05:25:12.136Z,97.30
2018-12-16T05:26:13.826Z,97.40
2018-12-16T05:27:15.356Z,97.40
2018-12-16T05:28:16.923Z,97.40
2018-12-16T05:29:18.559Z,97.50
2018-12-16T05:30:19.936Z,97.50
2018-12-16T05:31:21.320Z,97.60
2018-12-16T05:32:22.981Z,97.80
2018-12-16T05:33:24.629Z,97.70
2018-12-16T05:34:26.377Z,97.70
2018-12-16T05:35:27.910Z,97.70
2018-12-16T05:36:29.452Z,97.80
2018-12-16T05:37:30.998Z,97.80
2018-12-16T05:38:32.545Z,97.60
2018-12-16T05:39:34.394Z,97.50
2018-12-16T05:40:35.941Z,97.50
2018-12-16T05:41:37.485Z,97.60
2018-12-16T05:42:39.011Z,97.50
2018-12-16T05:43:40.519Z,97.60
2018-12-16T05:44:42.311Z,97.40
2018-12-16T05:45:43.956Z,97.40
2018-12-16T05:46:45.598Z,97.40
2018-12-16T05:47:47.143Z,97.10
2018-12-16T05:48:48.687Z,97.30
2018-12-16T05:49:50.326Z,97.40
2018-12-16T05:50:51.975Z,97.50
2018-12-16T05:51:53.619Z,97.60
2018-12-16T05:52:55.265Z,97.50
2018-12-16T05:53:56.913Z,97.40
2018-12-16T05:54:58.441Z,97.50
2018-12-16T05:56:00.095Z,97.50
2018-12-16T05:57:01.633Z,97.60
2018-12-16T05:58:03.291Z,97.80
2018-12-16T05:59:04.931Z,97.70
2018-12-16T06:00:06.678Z,97.70
2018-12-16T06:01:08.322Z,97.70
2018-12-16T06:02:10.076Z,97.70
2018-12-16T06:03:11.715Z,97.60
2018-12-16T06:04:13.358Z,97.60
2018-12-16T06:05:15.014Z,97.80
2018-12-16T06:06:16.659Z,97.90
2018-12-16T06:07:18.303Z,98.00
2018-12-16T06:08:19.946Z,98.10
2018-12-16T06:09:21.586Z,98.20
2018-12-16T06:10:23.134Z,98.10
2018-12-16T06:11:24.576Z,98.00
2018-12-16T06:12:26.105Z,97.90
2018-12-16T06:13:27.657Z,97.90
2018-12-16T06:14:29.201Z,98.00
2018-12-16T06:15:30.744Z,98.00
2018-12-16T06:16:32.101Z,98.10
2018-12-16T06:17:33.511Z,98.00
2018-12-16T06:18:36.102Z,98.10
2018-12-16T06:19:37.619Z,98.20
2018-12-16T06:20:39.180Z,98.10
2018-12-16T06:21:40.819Z,98.00
2018-12-16T06:22:42.347Z,98.10
2018-12-16T06:23:44.007Z,98.10
2018-12-16T06:24:45.655Z,98.00
2018-12-16T06:25:47.434Z,98.10
2018-12-16T06:26:50.072Z,97.90
2018-12-16T06:27:51.706Z,98.00
2018-12-16T06:28:53.387Z,98.10
2018-12-16T06:29:54.903Z,98.10
2018-12-16T06:30:56.648Z,98.20
2018-12-16T06:31:58.117Z,98.20
2018-12-16T06:32:59.635Z,98.30
2018-12-16T06:34:01.181Z,98.10
2018-12-16T06:35:02.716Z,98.10
2018-12-16T06:36:04.274Z,98.00
2018-12-16T06:37:05.805Z,97.90
2018-12-16T06:38:07.177Z,98.00
2018-12-16T06:39:08.686Z,97.60
2018-12-16T06:40:10.146Z,97.40
2018-12-16T06:41:11.971Z,97.40
2018-12-16T06:42:13.615Z,97.40
2018-12-16T06:43:15.271Z,97.50
2018-12-16T06:44:16.906Z,97.70
2018-12-16T06:45:18.550Z,97.80
2018-12-16T06:46:20.434Z,97.60
2018-12-16T06:47:22.277Z,97.70
2018-12-16T06:48:23.990Z,97.60
2018-12-16T06:49:25.750Z,97.60
2018-12-16T06:50:27.499Z,97.70
2018-12-16T06:51:29.037Z,97.90
2018-12-16T06:52:30.589Z,97.90
2018-12-16T06:53:32.121Z,97.70
2018-12-16T06:54:33.667Z,97.80
2018-12-16T06:55:35.209Z,97.90
2018-12-16T06:56:36.751Z,97.90
2018-12-16T06:57:38.144Z,97.70
2018-12-16T06:58:39.633Z,97.60
2018-12-16T06:59:41.171Z,97.50
2018-12-16T07:00:42.704Z,97.60
2018-12-16T07:01:44.366Z,97.70
2018-12-16T07:02:46.126Z,97.70
2018-12-16T07:03:47.741Z,97.60
2018-12-16T07:04:49.400Z,97.50
2018-12-16T07:05:51.142Z,97.70
2018-12-16T07:06:53.248Z,97.90
2018-12-16T07:07:55.156Z,97.70
2018-12-16T07:08:56.686Z,97.50
2018-12-16T07:09:58.345Z,97.80
2018-12-16T07:11:00.008Z,98.00
2018-12-16T07:12:01.535Z,97.70
2018-12-16T07:13:03.085Z,98.00
2018-12-16T07:14:04.615Z,98.00
2018-12-16T07:15:06.112Z,98.00
2018-12-16T07:16:07.637Z,97.70
2018-12-16T07:17:09.244Z,97.70
2018-12-16T07:18:10.681Z,97.50
2018-12-16T07:19:12.165Z,97.50
2018-12-16T07:20:13.652Z,97.70
2018-12-16T07:21:15.351Z,98.10
2018-12-16T07:22:16.955Z,98.10
2018-12-16T07:23:18.489Z,97.90
2018-12-16T07:24:20.150Z,97.70
2018-12-16T07:25:21.684Z,97.60
2018-12-16T07:26:23.538Z,97.60
2018-12-16T07:27:26.307Z,97.70
2018-12-16T07:28:27.843Z,97.80
2018-12-16T07:29:29.511Z,97.90
2018-12-16T07:30:30.970Z,98.10
2018-12-16T07:31:32.680Z,98.40
2018-12-16T07:32:34.174Z,98.10
2018-12-16T07:33:35.701Z,97.90
2018-12-16T07:34:37.519Z,98.00
2018-12-16T07:35:39.153Z,97.70
2018-12-16T07:36:40.921Z,97.70
2018-12-16T07:37:42.642Z,97.80
2018-12-16T07:38:44.313Z,97.70
2018-12-16T07:39:45.958Z,97.80
2018-12-16T07:40:47.596Z,98.00
2018-12-16T07:41:49.253Z,98.00
2018-12-16T07:42:50.859Z,98.40
2018-12-16T07:43:52.584Z,97.90
2018-12-16T07:44:54.102Z,97.80
2018-12-16T07:45:55.675Z,97.90
2018-12-16T07:46:57.971Z,98.10
2018-12-16T07:47:59.523Z,98.00
2018-12-16T07:49:01.077Z,98.20
2018-12-16T07:50:02.734Z,98.30
2018-12-16T07:51:04.361Z,98.10
2018-12-16T07:52:06.017Z,97.90
2018-12-16T07:53:07.856Z,97.80
2018-12-16T07:54:15.930Z,97.80
2018-12-16T07:55:13.122Z,97.60
2018-12-16T07:56:14.869Z,97.40
2018-12-16T07:57:16.479Z,97.30
2018-12-16T07:58:18.016Z,97.00
2018-12-16T07:59:19.573Z,96.90
2018-12-16T08:00:21.257Z,96.70
2018-12-16T08:01:22.741Z,96.80
2018-12-16T08:02:24.250Z,96.80
2018-12-16T08:03:25.860Z,96.70
2018-12-16T08:04:27.382Z,96.60
2018-12-16T08:05:28.846Z,96.50
2018-12-16T08:06:30.359Z,96.40
2018-12-16T08:07:31.899Z,96.40
2018-12-16T08:08:33.437Z,96.40
2018-12-16T08:09:34.832Z,96.50
2018-12-16T08:10:36.316Z,96.30
2018-12-16T08:11:37.888Z,96.30
2018-12-16T08:12:39.358Z,96.50
2018-12-16T08:13:40.941Z,96.40
2018-12-16T08:14:42.484Z,96.30
2018-12-16T08:15:43.974Z,96.50
2018-12-16T08:16:45.404Z,96.20
2018-12-16T08:17:46.906Z,96.30
2018-12-16T08:18:49.411Z,96.50
2018-12-16T08:19:51.126Z,96.40
2018-12-16T08:20:52.628Z,96.70
2018-12-16T08:21:53.999Z,96.80
2018-12-16T08:22:55.439Z,96.80
2018-12-16T08:23:56.981Z,96.20
2018-12-16T08:24:58.431Z,96.10
2018-12-16T08:25:59.810Z,96.20
2018-12-16T08:27:01.195Z,96.10
2018-12-16T08:28:02.756Z,95.70
2018-12-16T08:29:04.183Z,95.60
2018-12-16T08:30:05.587Z,96.00
2018-12-16T08:31:06.983Z,95.90
2018-12-16T08:32:08.697Z,96.00
2018-12-16T08:33:10.073Z,96.20
2018-12-16T08:34:11.521Z,96.10
2018-12-16T08:35:12.904Z,96.30
2018-12-16T08:36:14.416Z,96.50
2018-12-16T08:37:15.902Z,96.40
2018-12-16T08:38:17.466Z,96.40
2018-12-16T08:39:19.006Z,96.20
2018-12-16T08:40:20.562Z,96.10
2018-12-16T08:41:22.047Z,95.80
2018-12-16T08:42:23.451Z,95.60
2018-12-16T08:43:24.845Z,95.40
2018-12-16T08:44:26.245Z,95.10
2018-12-16T08:45:27.735Z,94.80
2018-12-16T08:46:29.319Z,94.90
2018-12-16T08:47:33.222Z,94.80
2018-12-16T08:48:34.202Z,94.90
2018-12-16T08:49:35.637Z,95.10
2018-12-16T08:50:37.242Z,95.30
2018-12-16T08:51:38.749Z,94.90
2018-12-16T08:52:40.160Z,94.80
2018-12-16T08:53:41.600Z,95.00
2018-12-16T08:54:43.107Z,95.10
2018-12-16T08:55:44.526Z,95.10
2018-12-16T08:56:45.909Z,95.30
2018-12-16T08:57:47.291Z,95.30
2018-12-16T08:58:48.761Z,95.30
2018-12-16T08:59:50.279Z,95.40
2018-12-16T09:00:51.712Z,95.60
2018-12-16T09:01:53.080Z,95.70
2018-12-16T09:02:54.456Z,95.50
2018-12-16T09:03:55.877Z,95.50
2018-12-16T09:04:57.595Z,95.20
2018-12-16T09:06:00.092Z,95.20
2018-12-16T09:07:01.493Z,95.50
2018-12-16T09:08:02.939Z,95.40
2018-12-16T09:09:04.320Z,95.50
2018-12-16T09:10:05.735Z,95.80
2018-12-16T09:11:07.174Z,95.60
2018-12-16T09:12:08.566Z,95.50
2018-12-16T09:13:10.004Z,95.70
2018-12-16T09:14:11.411Z,95.70
2018-12-16T09:15:12.849Z,95.70
2018-12-16T09:16:14.258Z,95.80
2018-12-16T09:17:15.799Z,95.60
2018-12-16T09:18:17.240Z,95.50
2018-12-16T09:19:18.644Z,95.40
2018-12-16T09:20:20.051Z,95.40
2018-12-16T09:21:21.536Z,95.60
2018-12-16T09:22:22.972Z,95.40
2018-12-16T09:23:24.400Z,95.10
2018-12-16T09:24:25.884Z,95.20
2018-12-16T09:25:27.307Z,95.50
2018-12-16T09:26:28.712Z,95.60
2018-12-16T09:27:30.132Z,95.70
2018-12-16T09:28:31.567Z,95.70
2018-12-16T09:29:33.116Z,95.90
2018-12-16T09:30:34.557Z,95.40
2018-12-16T09:31:35.961Z,94.90
2018-12-16T09:32:37.362Z,94.60
2018-12-16T09:33:38.796Z,95.00
2018-12-16T09:34:40.432Z,94.70
2018-12-16T09:35:41.838Z,94.70
2018-12-16T09:36:43.265Z,94.70
2018-12-16T09:37:44.686Z,94.60
2018-12-16T09:38:46.087Z,94.70
2018-12-16T09:39:47.622Z,94.90
2018-12-16T09:40:49.048Z,94.80
2018-12-16T09:41:50.460Z,94.60
2018-12-16T09:42:51.851Z,94.30
2018-12-16T09:43:53.359Z,94.40
2018-12-16T09:44:54.848Z,94.40
2018-12-16T09:45:56.299Z,94.50
2018-12-16T09:46:57.727Z,94.50
2018-12-16T09:47:59.121Z,94.50
2018-12-16T09:49:00.533Z,94.60
2018-12-16T09:50:01.965Z,94.60
2018-12-16T09:51:03.441Z,94.50
2018-12-16T09:52:04.833Z,94.50
2018-12-16T09:53:06.257Z,94.60
2018-12-16T09:54:07.842Z,94.20
2018-12-16T09:55:09.369Z,94.00
2018-12-16T09:56:10.768Z,93.60
2018-12-16T09:57:12.228Z,93.80
2018-12-16T09:58:13.646Z,93.50
2018-12-16T09:59:15.070Z,93.40
2018-12-16T10:00:16.525Z,93.50
2018-12-16T10:01:17.947Z,93.40
2018-12-16T10:02:19.315Z,93.60
2018-12-16T10:03:20.730Z,93.70
2018-12-16T10:04:22.134Z,93.60
2018-12-16T10:05:23.570Z,93.50
2018-12-16T10:06:24.987Z,93.50
2018-12-16T10:07:26.421Z,93.50
2018-12-16T10:08:27.818Z,93.30
2018-12-16T10:09:29.237Z,93.10
2018-12-16T10:10:30.692Z,93.00
2018-12-16T10:11:32.093Z,92.90
2018-12-16T10:12:33.452Z,93.10
2018-12-16T10:13:34.840Z,93.00
2018-12-16T10:14:36.252Z,93.30
2018-12-16T10:15:37.691Z,93.50
2018-12-16T10:16:39.100Z,93.40
2018-12-16T10:17:40.524Z,93.10
2018-12-16T10:18:41.946Z,93.10
2018-12-16T10:19:43.365Z,93.10
2018-12-16T10:20:44.896Z,93.10
2018-12-16T10:21:46.337Z,93.20
2018-12-16T10:22:47.774Z,93.40
2018-12-16T10:23:49.175Z,93.50
2018-12-16T10:24:51.502Z,93.40
2018-12-16T10:25:53.258Z,93.50
2018-12-16T10:26:54.690Z,93.00
2018-12-16T10:27:56.074Z,92.80
2018-12-16T10:28:57.493Z,93.00
2018-12-16T10:29:58.855Z,93.20
2018-12-16T10:31:00.373Z,93.20
2018-12-16T10:32:01.762Z,93.30
2018-12-16T10:33:03.180Z,93.20
2018-12-16T10:34:04.607Z,93.10
2018-12-16T10:35:06.051Z,93.10
2018-12-16T10:36:07.512Z,92.90
2018-12-16T10:37:08.917Z,92.70
2018-12-16T10:38:10.282Z,92.60
2018-12-16T10:39:11.616Z,92.70
2018-12-16T10:40:12.981Z,92.60
2018-12-16T10:41:14.373Z,92.80
2018-12-16T10:42:20.811Z,92.90
2018-12-16T10:43:22.191Z,92.70
2018-12-16T10:44:23.590Z,92.80
2018-12-16T10:45:24.938Z,92.90
2018-12-16T10:46:26.340Z,93.20
2018-12-16T10:47:27.706Z,93.00
2018-12-16T10:48:29.089Z,93.10
2018-12-16T10:49:30.447Z,93.40
2018-12-16T10:50:31.823Z,93.20
2018-12-16T10:51:33.280Z,93.00
2018-12-16T10:52:34.645Z,93.20
2018-12-16T10:53:36.657Z,92.90
2018-12-16T10:54:38.212Z,93.00
2018-12-16T10:55:39.574Z,92.70
2018-12-16T10:56:41.025Z,92.40
2018-12-16T10:57:42.450Z,92.10
2018-12-16T10:58:43.895Z,91.80
2018-12-16T10:59:45.330Z,91.80
2018-12-16T11:00:46.688Z,91.90
2018-12-16T11:01:48.130Z,91.90
2018-12-16T11:02:49.550Z,92.20
2018-12-16T11:03:51.093Z,91.90
2018-12-16T11:04:52.462Z,91.90
2018-12-16T11:05:53.808Z,91.90
2018-12-16T11:06:55.205Z,92.00
2018-12-16T11:07:56.611Z,92.00
2018-12-16T11:08:57.965Z,92.00
2018-12-16T11:09:59.400Z,92.20
2018-12-16T11:11:00.782Z,92.10
2018-12-16T11:12:02.241Z,91.90
2018-12-16T11:13:03.601Z,92.00
2018-12-16T11:14:04.977Z,92.10
2018-12-16T11:15:06.353Z,92.60
2018-12-16T11:16:07.694Z,92.70
2018-12-16T11:17:09.147Z,92.70
2018-12-16T11:18:10.515Z,92.50
2018-12-16T11:19:11.933Z,92.50
2018-12-16T11:20:13.353Z,92.40
2018-12-16T11:21:14.704Z,92.60
2018-12-16T11:22:16.076Z,92.60
2018-12-16T11:23:17.477Z,92.80
2018-12-16T11:24:18.880Z,92.70
2018-12-16T11:25:20.292Z,92.70
2018-12-16T11:26:21.691Z,92.40
2018-12-16T11:27:23.151Z,92.30
2018-12-16T11:28:24.572Z,92.30
2018-12-16T11:29:25.930Z,92.40
2018-12-16T11:30:27.441Z,92.50
2018-12-16T11:31:28.810Z,92.50
2018-12-16T11:32:30.297Z,92.70
2018-12-16T11:33:31.743Z,92.80
2018-12-16T11:34:33.142Z,92.50
2018-12-16T11:35:34.603Z,92.60
2018-12-16T11:36:36.005Z,92.70
2018-12-16T11:37:37.448Z,92.80
2018-12-16T11:38:38.823Z,92.90
2018-12-16T11:39:40.253Z,92.90
2018-12-16T11:40:41.600Z,92.80
2018-12-16T11:41:43.028Z,92.90
2018-12-16T11:42:44.560Z,93.00
2018-12-16T11:43:45.962Z,93.00
2018-12-16T11:44:47.374Z,92.90
2018-12-16T11:45:48.810Z,93.00
2018-12-16T11:46:50.327Z,93.20
2018-12-16T11:47:51.831Z,93.30
2018-12-16T11:48:53.254Z,93.30
2018-12-16T11:49:54.692Z,93.20
2018-12-16T11:50:56.100Z,93.10
2018-12-16T11:51:57.479Z,93.10
2018-12-16T11:52:58.965Z,93.40
2018-12-16T11:54:00.371Z,93.50
2018-12-16T11:55:01.770Z,93.70
2018-12-16T11:56:03.174Z,93.70
2018-12-16T11:57:04.581Z,93.80
2018-12-16T11:58:06.056Z,93.80
2018-12-16T11:59:07.463Z,93.90
2018-12-16T12:00:08.896Z,93.80
2018-12-16T12:01:10.248Z,93.80
2018-12-16T12:02:11.756Z,94.00
2018-12-16T12:03:13.252Z,94.20
2018-12-16T12:04:14.713Z,94.20
2018-12-16T12:05:16.148Z,94.00
2018-12-16T12:06:17.529Z,94.10
2018-12-16T12:07:18.927Z,94.30
2018-12-16T12:08:20.373Z,94.50
2018-12-16T12:09:21.737Z,94.60
2018-12-16T12:10:23.171Z,94.60
2018-12-16T12:11:24.532Z,94.60
2018-12-16T12:12:25.903Z,94.40
2018-12-16T12:13:27.346Z,94.20
2018-12-16T12:14:28.736Z,94.00
2018-12-16T12:15:30.100Z,94.10
2018-12-16T12:16:31.518Z,94.10
2018-12-16T12:17:32.923Z,94.00
2018-12-16T12:18:34.675Z,93.60
2018-12-16T12:19:36.191Z,93.50
2018-12-16T12:20:37.639Z,93.40
2018-12-16T12:21:39.064Z,93.20
2018-12-16T12:22:40.423Z,93.40
2018-12-16T12:23:41.884Z,93.50
2018-12-16T12:24:43.243Z,93.80
2018-12-16T12:25:44.641Z,93.90
2018-12-16T12:26:46.030Z,94.00
2018-12-16T12:27:47.398Z,94.00
2018-12-16T12:28:48.804Z,93.80
2018-12-16T12:29:50.199Z,93.70
2018-12-16T12:30:51.583Z,93.50
2018-12-16T12:31:52.938Z,93.70
2018-12-16T12:32:54.395Z,93.70
2018-12-16T12:33:56.305Z,93.70
2018-12-16T12:34:57.721Z,93.50
2018-12-16T12:35:59.071Z,93.60
2018-12-16T12:37:00.473Z,93.90
2018-12-16T12:38:01.884Z,94.00
2018-12-16T12:39:03.344Z,93.80
2018-12-16T12:40:04.838Z,93.50
2018-12-16T12:41:06.283Z,93.40
2018-12-16T12:42:07.787Z,93.40
2018-12-16T12:43:09.165Z,93.20
2018-12-16T12:44:10.697Z,93.20
2018-12-16T12:45:12.210Z,93.40
2018-12-16T12:46:13.638Z,93.40
2018-12-16T12:47:15.047Z,93.50
2018-12-16T12:48:16.454Z,93.60
2018-12-16T12:49:17.918Z,93.60
2018-12-16T12:50:19.322Z,93.90
2018-12-16T12:51:20.757Z,93.90
2018-12-16T12:52:22.200Z,93.80
2018-12-16T12:53:23.638Z,93.40
2018-12-16T12:54:25.065Z,93.20
2018-12-16T12:55:26.932Z,93.40
2018-12-16T12:56:28.639Z,93.70
2018-12-16T12:57:30.051Z,93.60
2018-12-16T12:58:31.449Z,93.70
2018-12-16T12:59:32.887Z,93.80
2018-12-16T13:00:34.269Z,94.00
2018-12-16T13:01:35.692Z,93.80
2018-12-16T13:02:37.086Z,93.70
2018-12-16T13:03:38.485Z,93.80
2018-12-16T13:04:39.986Z,94.00
2018-12-16T13:05:41.399Z,93.90
2018-12-16T13:06:42.805Z,93.70
2018-12-16T13:07:44.193Z,93.70
2018-12-16T13:08:45.755Z,93.70
2018-12-16T13:09:47.174Z,94.00
2018-12-16T13:10:48.557Z,94.00
2018-12-16T13:11:50.007Z,93.90
2018-12-16T13:12:51.429Z,93.80